sensor_id;sensor_type;location;lat;lon;timestamp;P1;durP1;ratioP1;P2;durP2;ratioP2
14686;SDS011;7431;49.440;11.084;2023-03-01T00:02:03;14.13;;;11.95;;
14686;SDS011;7431;49.440;11.084;2023-03-01T00:04:29;14.63;;;12.52;;
14686;SDS011;7431;49.440;11.084;2023-03-01T00:06:55;15.88;;;13.25;;
14686;SDS011;7431;49.440;11.084;2023-03-01T00:09:21;15.38;;;12.43;;
14686;SDS011;7431;49.440;11.084;2023-03-01T00:11:47;17.77;;;14.15;;
14686;SDS011;7431;49.440;11.084;2023-03-01T00:14:13;16.65;;;13.23;;
14686;SDS011;7431;49.440;11.084;2023-03-01T00:16:41;16.00;;;13.27;;
14686;SDS011;7431;49.440;11.084;2023-03-01T00:19:12;17.00;;;13.80;;
14686;SDS011;7431;49.440;11.084;2023-03-01T00:21:39;17.77;;;14.07;;
14686;SDS011;7431;49.440;11.084;2023-03-01T00:24:05;17.23;;;14.00;;
14686;SDS011;7431;49.440;11.084;2023-03-01T00:26:31;18.40;;;14.68;;
14686;SDS011;7431;49.440;11.084;2023-03-01T00:28:57;17.42;;;13.98;;
14686;SDS011;7431;49.440;11.084;2023-03-01T00:31:24;16.77;;;13.23;;
14686;SDS011;7431;49.440;11.084;2023-03-01T00:33:55;17.65;;;14.30;;
14686;SDS011;7431;49.440;11.084;2023-03-01T00:36:23;17.42;;;14.48;;
14686;SDS011;7431;49.440;11.084;2023-03-01T00:38:50;19.55;;;14.25;;
14686;SDS011;7431;49.440;11.084;2023-03-01T00:41:17;19.35;;;15.10;;
14686;SDS011;7431;49.440;11.084;2023-03-01T00:43:44;19.13;;;14.90;;
14686;SDS011;7431;49.440;11.084;2023-03-01T00:46:11;19.17;;;14.68;;
14686;SDS011;7431;49.440;11.084;2023-03-01T00:48:39;19.33;;;14.95;;
14686;SDS011;7431;49.440;11.084;2023-03-01T00:51:12;21.63;;;16.10;;
14686;SDS011;7431;49.440;11.084;2023-03-01T00:53:42;18.40;;;14.45;;
14686;SDS011;7431;49.440;11.084;2023-03-01T00:56:09;18.83;;;14.77;;
14686;SDS011;7431;49.440;11.084;2023-03-01T00:58:36;20.60;;;16.00;;
14686;SDS011;7431;49.440;11.084;2023-03-01T01:01:09;20.73;;;16.05;;
14686;SDS011;7431;49.440;11.084;2023-03-01T01:03:42;21.20;;;16.13;;
14686;SDS011;7431;49.440;11.084;2023-03-01T01:06:13;20.38;;;16.58;;
14686;SDS011;7431;49.440;11.084;2023-03-01T01:08:42;19.48;;;16.02;;
14686;SDS011;7431;49.440;11.084;2023-03-01T01:11:11;19.90;;;16.00;;
14686;SDS011;7431;49.440;11.084;2023-03-01T01:13:38;20.38;;;16.17;;
14686;SDS011;7431;49.440;11.084;2023-03-01T01:16:04;20.83;;;16.00;;
14686;SDS011;7431;49.440;11.084;2023-03-01T01:18:30;19.83;;;16.17;;
14686;SDS011;7431;49.440;11.084;2023-03-01T01:20:56;21.05;;;16.88;;
14686;SDS011;7431;49.440;11.084;2023-03-01T01:23:21;21.38;;;16.58;;
14686;SDS011;7431;49.440;11.084;2023-03-01T01:25:47;21.13;;;16.77;;
14686;SDS011;7431;49.440;11.084;2023-03-01T01:28:12;21.00;;;16.80;;
14686;SDS011;7431;49.440;11.084;2023-03-01T01:30:38;21.30;;;17.00;;
14686;SDS011;7431;49.440;11.084;2023-03-01T01:33:03;21.00;;;17.58;;
14686;SDS011;7431;49.440;11.084;2023-03-01T01:35:29;20.98;;;17.02;;
14686;SDS011;7431;49.440;11.084;2023-03-01T01:37:54;21.20;;;17.30;;
14686;SDS011;7431;49.440;11.084;2023-03-01T01:40:20;22.47;;;17.53;;
14686;SDS011;7431;49.440;11.084;2023-03-01T01:42:46;20.25;;;17.20;;
14686;SDS011;7431;49.440;11.084;2023-03-01T01:47:55;21.65;;;16.80;;
14686;SDS011;7431;49.440;11.084;2023-03-01T01:50:28;22.92;;;17.88;;
14686;SDS011;7431;49.440;11.084;2023-03-01T01:53:02;21.90;;;17.27;;
14686;SDS011;7431;49.440;11.084;2023-03-01T01:55:32;21.97;;;17.77;;
14686;SDS011;7431;49.440;11.084;2023-03-01T01:58:02;21.10;;;17.02;;
14686;SDS011;7431;49.440;11.084;2023-03-01T02:00:30;21.23;;;17.05;;
14686;SDS011;7431;49.440;11.084;2023-03-01T02:03:00;23.87;;;17.80;;
14686;SDS011;7431;49.440;11.084;2023-03-01T02:08:02;22.63;;;17.77;;
14686;SDS011;7431;49.440;11.084;2023-03-01T02:10:28;21.98;;;17.98;;
14686;SDS011;7431;49.440;11.084;2023-03-01T02:12:55;22.70;;;17.63;;
14686;SDS011;7431;49.440;11.084;2023-03-01T02:15:22;21.77;;;17.50;;
14686;SDS011;7431;49.440;11.084;2023-03-01T02:17:48;24.23;;;18.50;;
14686;SDS011;7431;49.440;11.084;2023-03-01T02:23:05;20.67;;;16.77;;
14686;SDS011;7431;49.440;11.084;2023-03-01T02:25:52;21.45;;;17.20;;
14686;SDS011;7431;49.440;11.084;2023-03-01T02:28:25;23.27;;;17.58;;
14686;SDS011;7431;49.440;11.084;2023-03-01T02:30:54;19.90;;;16.58;;
14686;SDS011;7431;49.440;11.084;2023-03-01T02:33:39;21.23;;;17.85;;
14686;SDS011;7431;49.440;11.084;2023-03-01T02:36:24;19.48;;;16.15;;
14686;SDS011;7431;49.440;11.084;2023-03-01T02:38:53;21.70;;;17.17;;
14686;SDS011;7431;49.440;11.084;2023-03-01T02:41:23;20.38;;;16.73;;
14686;SDS011;7431;49.440;11.084;2023-03-01T02:43:51;21.38;;;18.25;;
14686;SDS011;7431;49.440;11.084;2023-03-01T02:46:18;22.17;;;17.83;;
14686;SDS011;7431;49.440;11.084;2023-03-01T02:48:51;20.83;;;17.17;;
14686;SDS011;7431;49.440;11.084;2023-03-01T02:51:24;21.50;;;17.08;;
14686;SDS011;7431;49.440;11.084;2023-03-01T02:56:51;21.53;;;17.10;;
14686;SDS011;7431;49.440;11.084;2023-03-01T02:59:18;22.83;;;17.60;;
14686;SDS011;7431;49.440;11.084;2023-03-01T03:01:47;19.98;;;16.45;;
14686;SDS011;7431;49.440;11.084;2023-03-01T03:04:14;22.52;;;17.08;;
14686;SDS011;7431;49.440;11.084;2023-03-01T03:06:46;20.95;;;16.55;;
14686;SDS011;7431;49.440;11.084;2023-03-01T03:09:12;21.15;;;16.20;;
14686;SDS011;7431;49.440;11.084;2023-03-01T03:11:39;19.13;;;15.90;;
14686;SDS011;7431;49.440;11.084;2023-03-01T03:14:06;20.10;;;16.25;;
14686;SDS011;7431;49.440;11.084;2023-03-01T03:16:39;21.13;;;16.48;;
14686;SDS011;7431;49.440;11.084;2023-03-01T03:19:09;19.83;;;16.13;;
14686;SDS011;7431;49.440;11.084;2023-03-01T03:21:35;20.00;;;16.15;;
14686;SDS011;7431;49.440;11.084;2023-03-01T03:24:01;19.42;;;16.15;;
14686;SDS011;7431;49.440;11.084;2023-03-01T03:26:28;19.02;;;15.88;;
14686;SDS011;7431;49.440;11.084;2023-03-01T03:28:53;21.55;;;16.40;;
14686;SDS011;7431;49.440;11.084;2023-03-01T03:31:19;19.42;;;15.95;;
14686;SDS011;7431;49.440;11.084;2023-03-01T03:33:44;18.48;;;15.32;;
14686;SDS011;7431;49.440;11.084;2023-03-01T03:36:14;20.92;;;16.27;;
14686;SDS011;7431;49.440;11.084;2023-03-01T03:38:42;20.27;;;15.73;;
14686;SDS011;7431;49.440;11.084;2023-03-01T03:41:08;18.67;;;15.32;;
14686;SDS011;7431;49.440;11.084;2023-03-01T03:43:35;20.00;;;15.90;;
14686;SDS011;7431;49.440;11.084;2023-03-01T03:46:02;18.40;;;14.90;;
14686;SDS011;7431;49.440;11.084;2023-03-01T03:48:30;21.13;;;16.30;;
14686;SDS011;7431;49.440;11.084;2023-03-01T03:51:00;19.50;;;15.50;;
14686;SDS011;7431;49.440;11.084;2023-03-01T03:53:26;17.67;;;14.75;;
14686;SDS011;7431;49.440;11.084;2023-03-01T03:55:52;17.73;;;14.73;;
14686;SDS011;7431;49.440;11.084;2023-03-01T03:58:19;18.63;;;14.15;;
14686;SDS011;7431;49.440;11.084;2023-03-01T04:00:47;17.08;;;14.88;;
14686;SDS011;7431;49.440;11.084;2023-03-01T04:03:15;17.33;;;14.33;;
14686;SDS011;7431;49.440;11.084;2023-03-01T04:05:42;20.23;;;15.55;;
14686;SDS011;7431;49.440;11.084;2023-03-01T04:08:08;17.83;;;14.23;;
14686;SDS011;7431;49.440;11.084;2023-03-01T04:10:35;17.05;;;14.18;;
14686;SDS011;7431;49.440;11.084;2023-03-01T04:13:03;19.35;;;14.90;;
14686;SDS011;7431;49.440;11.084;2023-03-01T04:15:30;18.75;;;14.93;;
14686;SDS011;7431;49.440;11.084;2023-03-01T04:17:57;17.80;;;14.35;;
14686;SDS011;7431;49.440;11.084;2023-03-01T04:20:24;18.08;;;14.20;;
14686;SDS011;7431;49.440;11.084;2023-03-01T04:22:52;17.45;;;14.40;;
14686;SDS011;7431;49.440;11.084;2023-03-01T04:25:35;17.25;;;14.15;;
14686;SDS011;7431;49.440;11.084;2023-03-01T04:28:05;18.40;;;14.33;;
14686;SDS011;7431;49.440;11.084;2023-03-01T04:30:30;17.63;;;14.25;;
14686;SDS011;7431;49.440;11.084;2023-03-01T04:33:00;16.00;;;12.90;;
14686;SDS011;7431;49.440;11.084;2023-03-01T04:35:27;15.90;;;13.10;;
14686;SDS011;7431;49.440;11.084;2023-03-01T04:37:52;16.85;;;13.38;;
14686;SDS011;7431;49.440;11.084;2023-03-01T04:40:18;17.20;;;13.65;;
14686;SDS011;7431;49.440;11.084;2023-03-01T04:42:43;17.08;;;13.85;;
14686;SDS011;7431;49.440;11.084;2023-03-01T04:45:09;17.40;;;13.30;;
14686;SDS011;7431;49.440;11.084;2023-03-01T04:47:41;17.80;;;13.70;;
14686;SDS011;7431;49.440;11.084;2023-03-01T04:50:09;14.73;;;12.43;;
14686;SDS011;7431;49.440;11.084;2023-03-01T04:52:36;17.07;;;12.93;;
14686;SDS011;7431;49.440;11.084;2023-03-01T04:55:01;17.55;;;13.27;;
14686;SDS011;7431;49.440;11.084;2023-03-01T04:57:28;17.08;;;13.15;;
14686;SDS011;7431;49.440;11.084;2023-03-01T04:59:54;15.83;;;12.37;;
14686;SDS011;7431;49.440;11.084;2023-03-01T05:02:19;14.48;;;12.35;;
14686;SDS011;7431;49.440;11.084;2023-03-01T05:04:45;15.65;;;12.25;;
14686;SDS011;7431;49.440;11.084;2023-03-01T05:07:10;15.35;;;13.27;;
14686;SDS011;7431;49.440;11.084;2023-03-01T05:09:38;15.57;;;12.00;;
14686;SDS011;7431;49.440;11.084;2023-03-01T05:12:03;16.23;;;12.30;;
14686;SDS011;7431;49.440;11.084;2023-03-01T05:14:29;14.52;;;11.93;;
14686;SDS011;7431;49.440;11.084;2023-03-01T05:16:55;15.75;;;12.40;;
14686;SDS011;7431;49.440;11.084;2023-03-01T05:19:28;15.70;;;12.40;;
14686;SDS011;7431;49.440;11.084;2023-03-01T05:21:55;14.20;;;11.57;;
14686;SDS011;7431;49.440;11.084;2023-03-01T05:24:29;16.45;;;12.70;;
14686;SDS011;7431;49.440;11.084;2023-03-01T05:26:56;14.32;;;12.10;;
14686;SDS011;7431;49.440;11.084;2023-03-01T05:29:22;14.85;;;11.95;;
14686;SDS011;7431;49.440;11.084;2023-03-01T05:31:53;15.20;;;11.70;;
14686;SDS011;7431;49.440;11.084;2023-03-01T05:34:23;14.60;;;11.30;;
14686;SDS011;7431;49.440;11.084;2023-03-01T05:36:53;13.20;;;11.02;;
14686;SDS011;7431;49.440;11.084;2023-03-01T05:39:20;13.43;;;11.32;;
14686;SDS011;7431;49.440;11.084;2023-03-01T05:41:47;14.77;;;11.23;;
14686;SDS011;7431;49.440;11.084;2023-03-01T05:44:13;14.30;;;11.23;;
14686;SDS011;7431;49.440;11.084;2023-03-01T05:46:38;14.73;;;11.90;;
14686;SDS011;7431;49.440;11.084;2023-03-01T05:49:04;13.67;;;10.80;;
14686;SDS011;7431;49.440;11.084;2023-03-01T05:51:30;14.40;;;11.30;;
14686;SDS011;7431;49.440;11.084;2023-03-01T05:53:55;14.48;;;11.10;;
14686;SDS011;7431;49.440;11.084;2023-03-01T05:56:21;15.10;;;11.20;;
14686;SDS011;7431;49.440;11.084;2023-03-01T05:58:47;14.27;;;10.68;;
14686;SDS011;7431;49.440;11.084;2023-03-01T06:01:14;14.85;;;11.07;;
14686;SDS011;7431;49.440;11.084;2023-03-01T06:03:40;12.85;;;10.68;;
14686;SDS011;7431;49.440;11.084;2023-03-01T06:06:05;13.90;;;10.80;;
14686;SDS011;7431;49.440;11.084;2023-03-01T06:08:31;12.30;;;10.10;;
14686;SDS011;7431;49.440;11.084;2023-03-01T06:10:57;14.05;;;10.55;;
14686;SDS011;7431;49.440;11.084;2023-03-01T06:13:22;12.88;;;10.35;;
14686;SDS011;7431;49.440;11.084;2023-03-01T06:15:49;14.50;;;10.70;;
14686;SDS011;7431;49.440;11.084;2023-03-01T06:18:14;12.90;;;10.35;;
14686;SDS011;7431;49.440;11.084;2023-03-01T06:20:40;13.73;;;10.87;;
14686;SDS011;7431;49.440;11.084;2023-03-01T06:23:06;15.52;;;11.32;;
14686;SDS011;7431;49.440;11.084;2023-03-01T06:25:31;12.52;;;10.25;;
14686;SDS011;7431;49.440;11.084;2023-03-01T06:27:57;12.75;;;9.93;;
14686;SDS011;7431;49.440;11.084;2023-03-01T06:30:23;12.15;;;9.63;;
14686;SDS011;7431;49.440;11.084;2023-03-01T06:32:50;12.93;;;10.70;;
14686;SDS011;7431;49.440;11.084;2023-03-01T06:35:17;12.60;;;10.00;;
14686;SDS011;7431;49.440;11.084;2023-03-01T06:37:44;13.23;;;9.90;;
14686;SDS011;7431;49.440;11.084;2023-03-01T06:40:10;13.85;;;10.20;;
14686;SDS011;7431;49.440;11.084;2023-03-01T06:42:37;12.00;;;9.38;;
14686;SDS011;7431;49.440;11.084;2023-03-01T06:45:04;13.05;;;10.13;;
14686;SDS011;7431;49.440;11.084;2023-03-01T06:47:31;11.63;;;10.07;;
14686;SDS011;7431;49.440;11.084;2023-03-01T06:49:58;11.40;;;9.38;;
14686;SDS011;7431;49.440;11.084;2023-03-01T06:52:27;11.10;;;9.88;;
14686;SDS011;7431;49.440;11.084;2023-03-01T06:54:53;12.85;;;9.50;;
14686;SDS011;7431;49.440;11.084;2023-03-01T06:57:18;11.77;;;9.45;;
14686;SDS011;7431;49.440;11.084;2023-03-01T06:59:44;13.68;;;9.32;;
14686;SDS011;7431;49.440;11.084;2023-03-01T07:02:11;11.20;;;9.47;;
14686;SDS011;7431;49.440;11.084;2023-03-01T07:04:37;11.93;;;9.45;;
14686;SDS011;7431;49.440;11.084;2023-03-01T07:07:03;11.18;;;9.32;;
14686;SDS011;7431;49.440;11.084;2023-03-01T07:09:29;13.90;;;9.20;;
14686;SDS011;7431;49.440;11.084;2023-03-01T07:11:55;13.33;;;9.57;;
14686;SDS011;7431;49.440;11.084;2023-03-01T07:14:21;17.92;;;10.75;;
14686;SDS011;7431;49.440;11.084;2023-03-01T07:16:49;17.80;;;10.93;;
14686;SDS011;7431;49.440;11.084;2023-03-01T07:19:15;21.73;;;10.43;;
14686;SDS011;7431;49.440;11.084;2023-03-01T07:21:40;17.45;;;11.25;;
14686;SDS011;7431;49.440;11.084;2023-03-01T07:24:06;17.90;;;12.32;;
14686;SDS011;7431;49.440;11.084;2023-03-01T07:26:32;15.05;;;12.82;;
14686;SDS011;7431;49.440;11.084;2023-03-01T07:29:02;15.57;;;13.00;;
14686;SDS011;7431;49.440;11.084;2023-03-01T07:31:28;14.30;;;12.10;;
14686;SDS011;7431;49.440;11.084;2023-03-01T07:33:54;15.43;;;12.45;;
14686;SDS011;7431;49.440;11.084;2023-03-01T07:36:21;15.37;;;12.57;;
14686;SDS011;7431;49.440;11.084;2023-03-01T07:38:48;16.38;;;12.38;;
14686;SDS011;7431;49.440;11.084;2023-03-01T07:41:14;14.63;;;12.10;;
14686;SDS011;7431;49.440;11.084;2023-03-01T07:43:39;15.00;;;12.02;;
14686;SDS011;7431;49.440;11.084;2023-03-01T07:46:05;16.30;;;12.07;;
14686;SDS011;7431;49.440;11.084;2023-03-01T07:48:32;15.55;;;12.13;;
14686;SDS011;7431;49.440;11.084;2023-03-01T07:50:58;15.48;;;12.40;;
14686;SDS011;7431;49.440;11.084;2023-03-01T07:53:24;16.35;;;12.25;;
14686;SDS011;7431;49.440;11.084;2023-03-01T07:55:56;13.75;;;12.27;;
14686;SDS011;7431;49.440;11.084;2023-03-01T07:58:36;16.20;;;12.40;;
14686;SDS011;7431;49.440;11.084;2023-03-01T08:01:03;12.93;;;11.23;;
14686;SDS011;7431;49.440;11.084;2023-03-01T08:03:32;12.55;;;10.48;;
14686;SDS011;7431;49.440;11.084;2023-03-01T08:05:59;13.27;;;9.85;;
14686;SDS011;7431;49.440;11.084;2023-03-01T08:08:26;11.82;;;9.70;;
14686;SDS011;7431;49.440;11.084;2023-03-01T08:10:52;12.15;;;9.35;;
14686;SDS011;7431;49.440;11.084;2023-03-01T08:13:17;11.15;;;9.20;;
14686;SDS011;7431;49.440;11.084;2023-03-01T08:15:47;17.63;;;9.43;;
14686;SDS011;7431;49.440;11.084;2023-03-01T08:18:14;10.63;;;8.63;;
14686;SDS011;7431;49.440;11.084;2023-03-01T08:20:40;12.75;;;8.80;;
14686;SDS011;7431;49.440;11.084;2023-03-01T08:23:05;11.23;;;8.52;;
14686;SDS011;7431;49.440;11.084;2023-03-01T08:25:31;11.55;;;8.40;;
14686;SDS011;7431;49.440;11.084;2023-03-01T08:27:56;11.15;;;8.20;;
14686;SDS011;7431;49.440;11.084;2023-03-01T08:30:22;9.00;;;7.63;;
14686;SDS011;7431;49.440;11.084;2023-03-01T08:32:49;10.60;;;7.25;;
14686;SDS011;7431;49.440;11.084;2023-03-01T08:35:15;9.43;;;7.53;;
14686;SDS011;7431;49.440;11.084;2023-03-01T08:37:41;11.10;;;7.97;;
14686;SDS011;7431;49.440;11.084;2023-03-01T08:40:07;12.60;;;8.20;;
14686;SDS011;7431;49.440;11.084;2023-03-01T08:42:34;10.55;;;7.90;;
14686;SDS011;7431;49.440;11.084;2023-03-01T08:45:01;14.07;;;7.55;;
14686;SDS011;7431;49.440;11.084;2023-03-01T08:47:27;9.73;;;7.22;;
14686;SDS011;7431;49.440;11.084;2023-03-01T08:49:52;10.63;;;7.95;;
14686;SDS011;7431;49.440;11.084;2023-03-01T08:52:19;11.60;;;7.35;;
14686;SDS011;7431;49.440;11.084;2023-03-01T08:54:45;11.20;;;8.07;;
14686;SDS011;7431;49.440;11.084;2023-03-01T08:57:12;11.95;;;7.97;;
14686;SDS011;7431;49.440;11.084;2023-03-01T08:59:38;13.18;;;8.00;;
14686;SDS011;7431;49.440;11.084;2023-03-01T09:02:05;10.13;;;7.38;;
14686;SDS011;7431;49.440;11.084;2023-03-01T09:04:35;11.13;;;7.57;;
14686;SDS011;7431;49.440;11.084;2023-03-01T09:07:00;9.60;;;7.60;;
14686;SDS011;7431;49.440;11.084;2023-03-01T09:09:26;10.98;;;7.32;;
14686;SDS011;7431;49.440;11.084;2023-03-01T09:11:51;9.93;;;7.35;;
14686;SDS011;7431;49.440;11.084;2023-03-01T09:14:17;9.82;;;7.00;;
14686;SDS011;7431;49.440;11.084;2023-03-01T09:16:42;9.43;;;7.15;;
14686;SDS011;7431;49.440;11.084;2023-03-01T09:19:08;8.73;;;6.93;;
14686;SDS011;7431;49.440;11.084;2023-03-01T09:21:34;8.50;;;7.07;;
14686;SDS011;7431;49.440;11.084;2023-03-01T09:23:59;8.27;;;6.80;;
14686;SDS011;7431;49.440;11.084;2023-03-01T09:26:25;9.43;;;7.25;;
14686;SDS011;7431;49.440;11.084;2023-03-01T09:28:53;8.77;;;6.47;;
14686;SDS011;7431;49.440;11.084;2023-03-01T09:31:20;9.30;;;7.10;;
14686;SDS011;7431;49.440;11.084;2023-03-01T09:33:47;8.70;;;6.55;;
14686;SDS011;7431;49.440;11.084;2023-03-01T09:36:15;8.93;;;6.47;;
14686;SDS011;7431;49.440;11.084;2023-03-01T09:38:43;7.38;;;6.60;;
14686;SDS011;7431;49.440;11.084;2023-03-01T09:41:09;8.07;;;6.68;;
14686;SDS011;7431;49.440;11.084;2023-03-01T09:43:51;8.85;;;6.75;;
14686;SDS011;7431;49.440;11.084;2023-03-01T09:46:22;7.45;;;6.45;;
14686;SDS011;7431;49.440;11.084;2023-03-01T09:48:51;8.17;;;6.73;;
14686;SDS011;7431;49.440;11.084;2023-03-01T09:51:31;7.47;;;6.40;;
14686;SDS011;7431;49.440;11.084;2023-03-01T09:54:00;8.27;;;6.33;;
14686;SDS011;7431;49.440;11.084;2023-03-01T10:09:52;8.07;;;6.28;;
14686;SDS011;7431;49.440;11.084;2023-03-01T10:12:22;8.25;;;6.22;;
14686;SDS011;7431;49.440;11.084;2023-03-01T10:17:56;7.13;;;6.03;;
14686;SDS011;7431;49.440;11.084;2023-03-01T10:20:42;7.82;;;6.15;;
14686;SDS011;7431;49.440;11.084;2023-03-01T10:23:16;7.40;;;5.80;;
14686;SDS011;7431;49.440;11.084;2023-03-01T10:31:13;7.50;;;6.63;;
14686;SDS011;7431;49.440;11.084;2023-03-01T10:33:41;8.88;;;5.80;;
14686;SDS011;7431;49.440;11.084;2023-03-01T10:36:07;8.80;;;6.40;;
14686;SDS011;7431;49.440;11.084;2023-03-01T10:38:47;8.10;;;6.32;;
14686;SDS011;7431;49.440;11.084;2023-03-01T10:41:22;7.28;;;6.35;;
14686;SDS011;7431;49.440;11.084;2023-03-01T10:43:53;7.63;;;6.13;;
14686;SDS011;7431;49.440;11.084;2023-03-01T10:46:42;8.57;;;6.53;;
14686;SDS011;7431;49.440;11.084;2023-03-01T10:49:14;8.82;;;6.40;;
14686;SDS011;7431;49.440;11.084;2023-03-01T10:51:48;7.68;;;6.70;;
14686;SDS011;7431;49.440;11.084;2023-03-01T10:54:26;8.52;;;6.85;;
14686;SDS011;7431;49.440;11.084;2023-03-01T10:56:57;8.05;;;6.70;;
14686;SDS011;7431;49.440;11.084;2023-03-01T11:02:02;8.27;;;6.90;;
14686;SDS011;7431;49.440;11.084;2023-03-01T11:04:34;7.95;;;6.80;;
14686;SDS011;7431;49.440;11.084;2023-03-01T11:06:59;8.98;;;6.80;;
14686;SDS011;7431;49.440;11.084;2023-03-01T11:09:29;7.70;;;6.90;;
14686;SDS011;7431;49.440;11.084;2023-03-01T11:12:02;10.60;;;7.28;;
14686;SDS011;7431;49.440;11.084;2023-03-01T11:14:33;7.78;;;6.22;;
14686;SDS011;7431;49.440;11.084;2023-03-01T11:17:11;7.72;;;6.57;;
14686;SDS011;7431;49.440;11.084;2023-03-01T11:20:14;9.18;;;7.32;;
14686;SDS011;7431;49.440;11.084;2023-03-01T11:22:44;8.88;;;7.10;;
14686;SDS011;7431;49.440;11.084;2023-03-01T11:25:17;8.02;;;6.70;;
14686;SDS011;7431;49.440;11.084;2023-03-01T11:27:48;10.02;;;7.20;;
14686;SDS011;7431;49.440;11.084;2023-03-01T11:30:27;10.88;;;7.32;;
14686;SDS011;7431;49.440;11.084;2023-03-01T11:33:05;9.10;;;7.10;;
14686;SDS011;7431;49.440;11.084;2023-03-01T11:36:01;8.73;;;7.20;;
14686;SDS011;7431;49.440;11.084;2023-03-01T11:38:32;9.88;;;7.55;;
14686;SDS011;7431;49.440;11.084;2023-03-01T11:41:05;10.90;;;8.35;;
14686;SDS011;7431;49.440;11.084;2023-03-01T11:43:37;11.25;;;7.50;;
14686;SDS011;7431;49.440;11.084;2023-03-01T11:46:29;10.73;;;7.57;;
14686;SDS011;7431;49.440;11.084;2023-03-01T11:54:28;12.98;;;7.70;;
14686;SDS011;7431;49.440;11.084;2023-03-01T12:08:24;10.88;;;8.48;;
14686;SDS011;7431;49.440;11.084;2023-03-01T12:19:30;11.70;;;10.35;;
14686;SDS011;7431;49.440;11.084;2023-03-01T12:22:32;13.32;;;10.60;;
14686;SDS011;7431;49.440;11.084;2023-03-01T12:25:16;14.73;;;9.80;;
14686;SDS011;7431;49.440;11.084;2023-03-01T12:27:56;16.73;;;10.63;;
14686;SDS011;7431;49.440;11.084;2023-03-01T12:38:41;17.10;;;9.90;;
14686;SDS011;7431;49.440;11.084;2023-03-01T12:43:51;13.93;;;9.13;;
14686;SDS011;7431;49.440;11.084;2023-03-01T12:49:19;13.17;;;8.67;;
14686;SDS011;7431;49.440;11.084;2023-03-01T12:54:39;12.30;;;8.80;;
14686;SDS011;7431;49.440;11.084;2023-03-01T12:57:09;13.57;;;8.80;;
14686;SDS011;7431;49.440;11.084;2023-03-01T13:05:34;12.02;;;8.00;;
14686;SDS011;7431;49.440;11.084;2023-03-01T13:11:05;12.33;;;8.33;;
14686;SDS011;7431;49.440;11.084;2023-03-01T13:13:36;10.65;;;8.25;;
14686;SDS011;7431;49.440;11.084;2023-03-01T13:17:02;11.02;;;8.20;;
14686;SDS011;7431;49.440;11.084;2023-03-01T13:22:25;10.95;;;8.23;;
14686;SDS011;7431;49.440;11.084;2023-03-01T13:25:00;11.38;;;8.65;;
14686;SDS011;7431;49.440;11.084;2023-03-01T13:27:36;10.87;;;7.87;;
14686;SDS011;7431;49.440;11.084;2023-03-01T13:30:01;10.90;;;7.85;;
14686;SDS011;7431;49.440;11.084;2023-03-01T13:32:36;11.75;;;7.95;;
14686;SDS011;7431;49.440;11.084;2023-03-01T13:37:40;10.75;;;8.00;;
14686;SDS011;7431;49.440;11.084;2023-03-01T13:42:42;10.00;;;7.50;;
14686;SDS011;7431;49.440;11.084;2023-03-01T13:48:09;9.60;;;7.40;;
14686;SDS011;7431;49.440;11.084;2023-03-01T13:50:43;12.57;;;7.60;;
14686;SDS011;7431;49.440;11.084;2023-03-01T13:53:14;10.82;;;8.10;;
14686;SDS011;7431;49.440;11.084;2023-03-01T13:55:46;11.23;;;7.85;;
14686;SDS011;7431;49.440;11.084;2023-03-01T14:00:46;11.95;;;8.10;;
14686;SDS011;7431;49.440;11.084;2023-03-01T14:03:15;11.68;;;7.85;;
14686;SDS011;7431;49.440;11.084;2023-03-01T14:08:33;10.73;;;7.47;;
14686;SDS011;7431;49.440;11.084;2023-03-01T14:11:21;10.30;;;8.32;;
14686;SDS011;7431;49.440;11.084;2023-03-01T14:14:06;12.40;;;7.75;;
14686;SDS011;7431;49.440;11.084;2023-03-01T14:19:22;12.65;;;8.43;;
14686;SDS011;7431;49.440;11.084;2023-03-01T14:22:02;12.30;;;8.43;;
14686;SDS011;7431;49.440;11.084;2023-03-01T14:24:35;11.55;;;8.60;;
14686;SDS011;7431;49.440;11.084;2023-03-01T14:27:09;10.57;;;8.15;;
14686;SDS011;7431;49.440;11.084;2023-03-01T14:29:38;11.52;;;8.13;;
14686;SDS011;7431;49.440;11.084;2023-03-01T14:34:38;10.77;;;8.50;;
14686;SDS011;7431;49.440;11.084;2023-03-01T14:37:10;11.23;;;7.65;;
14686;SDS011;7431;49.440;11.084;2023-03-01T14:39:56;10.52;;;7.47;;
14686;SDS011;7431;49.440;11.084;2023-03-01T14:42:23;9.40;;;7.45;;
14686;SDS011;7431;49.440;11.084;2023-03-01T14:44:52;10.18;;;7.88;;
14686;SDS011;7431;49.440;11.084;2023-03-01T14:49:58;9.63;;;7.85;;
14686;SDS011;7431;49.440;11.084;2023-03-01T14:52:34;9.50;;;7.43;;
14686;SDS011;7431;49.440;11.084;2023-03-01T14:55:03;9.45;;;7.15;;
14686;SDS011;7431;49.440;11.084;2023-03-01T14:57:32;9.20;;;7.10;;
14686;SDS011;7431;49.440;11.084;2023-03-01T14:59:58;9.52;;;7.43;;
14686;SDS011;7431;49.440;11.084;2023-03-01T15:02:30;10.87;;;7.90;;
14686;SDS011;7431;49.440;11.084;2023-03-01T15:04:57;9.55;;;7.30;;
14686;SDS011;7431;49.440;11.084;2023-03-01T15:07:30;9.25;;;7.38;;
14686;SDS011;7431;49.440;11.084;2023-03-01T15:09:59;9.43;;;7.37;;
14686;SDS011;7431;49.440;11.084;2023-03-01T15:14:58;10.00;;;7.40;;
14686;SDS011;7431;49.440;11.084;2023-03-01T15:19:58;9.32;;;7.60;;
14686;SDS011;7431;49.440;11.084;2023-03-01T15:22:27;11.93;;;7.82;;
14686;SDS011;7431;49.440;11.084;2023-03-01T15:24:53;8.27;;;7.28;;
14686;SDS011;7431;49.440;11.084;2023-03-01T15:27:21;8.98;;;7.55;;
14686;SDS011;7431;49.440;11.084;2023-03-01T15:29:50;9.20;;;7.22;;
14686;SDS011;7431;49.440;11.084;2023-03-01T15:41:26;10.23;;;7.20;;
14686;SDS011;7431;49.440;11.084;2023-03-01T15:43:58;8.73;;;7.20;;
14686;SDS011;7431;49.440;11.084;2023-03-01T15:48:55;8.63;;;7.13;;
14686;SDS011;7431;49.440;11.084;2023-03-01T15:51:32;8.83;;;6.97;;
14686;SDS011;7431;49.440;11.084;2023-03-01T15:54:00;9.27;;;7.10;;
14686;SDS011;7431;49.440;11.084;2023-03-01T15:56:28;9.57;;;7.13;;
14686;SDS011;7431;49.440;11.084;2023-03-01T15:58:57;9.07;;;7.18;;
14686;SDS011;7431;49.440;11.084;2023-03-01T16:01:24;8.57;;;6.63;;
14686;SDS011;7431;49.440;11.084;2023-03-01T16:03:50;7.88;;;6.63;;
14686;SDS011;7431;49.440;11.084;2023-03-01T16:06:16;12.27;;;8.30;;
14686;SDS011;7431;49.440;11.084;2023-03-01T16:08:41;14.13;;;9.02;;
14686;SDS011;7431;49.440;11.084;2023-03-01T16:11:13;12.02;;;8.35;;
14686;SDS011;7431;49.440;11.084;2023-03-01T16:13:41;13.93;;;8.98;;
14686;SDS011;7431;49.440;11.084;2023-03-01T16:16:08;13.93;;;8.82;;
14686;SDS011;7431;49.440;11.084;2023-03-01T16:18:37;12.87;;;8.83;;
14686;SDS011;7431;49.440;11.084;2023-03-01T16:21:03;14.37;;;8.73;;
14686;SDS011;7431;49.440;11.084;2023-03-01T16:23:30;15.37;;;8.97;;
14686;SDS011;7431;49.440;11.084;2023-03-01T16:25:58;13.73;;;8.98;;
14686;SDS011;7431;49.440;11.084;2023-03-01T16:28:24;13.77;;;8.25;;
14686;SDS011;7431;49.440;11.084;2023-03-01T16:30:51;14.52;;;8.30;;
14686;SDS011;7431;49.440;11.084;2023-03-01T16:33:17;13.38;;;8.40;;
14686;SDS011;7431;49.440;11.084;2023-03-01T16:35:43;14.40;;;8.45;;
14686;SDS011;7431;49.440;11.084;2023-03-01T16:38:09;12.60;;;8.57;;
14686;SDS011;7431;49.440;11.084;2023-03-01T16:40:35;15.85;;;9.25;;
14686;SDS011;7431;49.440;11.084;2023-03-01T16:43:00;13.23;;;8.45;;
14686;SDS011;7431;49.440;11.084;2023-03-01T16:45:27;12.93;;;7.95;;
14686;SDS011;7431;49.440;11.084;2023-03-01T16:47:57;12.60;;;8.23;;
14686;SDS011;7431;49.440;11.084;2023-03-01T16:50:23;12.38;;;8.05;;